Weather at Jorge Newbery Airpark

Public forecast

Using degrees Celsius for public forecast. Weather courtesy of forecast.io.

Current aviation weather report (METAR) for Jorge Newbery Airpark

Retrieved 2020/10/19 15:00 UTC (25 minutes ago):

SABE 191500Z 10012KT 060120 CAVOK 22/19 Q1011 NOSIG

Aviation forecast (TAF) for Jorge Newbery Airpark

Retrieved 2020/10/19 12:00 UTC (3 hours ago):

TAF SABE 191100Z 1912/2012 17010KT 9999 SCT030 BKN090 TX27/1918Z TN13/2009Z PROB30 1915/1918 8000 -SHRA FEW040TCU BECMG 1917/1920 15015G25KT 5000 TSRA BKN030 FEW050CB BKN050 BECMG 1923/2002 15020G30KT 2000 TSRA BKN020 OVC040 FEW040CB BECMG 2004/2007 1500 +RA BKN010 OVC025